Les Mechins, Canada
Current Conditions -  °F | °C
As of 3:00 PM on Thursday 23 Oct 2014 (Local Time) from CYBC Reporting Station
Clear Clear  
Wind Chill: 39°   Ceiling: Unl
Heat Index: 45°   Visibility: 9mi
Dew Point: 36°   Wind: 10mph
Humidity: 71%   Direction: 100°E
Pressure: 30.23"   Gusts: 17mph
Location:  48.98°N, 66.98°W
Report Text: CYBC 231900Z AUTO 10009G15KT 9SM CLR 07/02 A3023 RMK SLP237
Loading
Personal Weather Stations






























Interactive Weather Map
Tropical Storm Tracking
New forecast layout! Learn more

10-Day Weather Forecast

Advertisements
Track Severe Weather on mobile